Time;durP1;ratioP1;P1;durP2;ratioP2;P2;SDS_P1;SDS_P2;PMS_P1;PMS_P2;Temp;Humidity;BMP_temperature;BMP_pressure;BME280_temperature;BME280_humidity;BME280_pressure;Samples;Min_cycle;Max_cycle;Signal;HPM_P1;HPM_P2
2023/07/23 00:01:04;;;;;;;14.55;8.98;;;15.00;99.90;;;;;;5071283;28;20079;-51
2023/07/23 00:03:30;;;;;;;15.52;8.98;;;15.10;99.90;;;;;;5071842;28;20044;-49
2023/07/23 00:05:56;;;;;;;14.85;7.60;;;15.00;99.90;;;;;;5089055;28;20080;-51
2023/07/23 00:08:22;;;;;;;13.68;9.35;;;15.10;99.90;;;;;;5091982;28;20071;-48
2023/07/23 00:10:48;;;;;;;12.25;6.22;;;15.10;99.90;;;;;;5091735;28;20510;-48
2023/07/23 00:13:13;;;;;;;11.70;8.70;;;15.00;99.90;;;;;;5091459;28;20043;-50
2023/07/23 00:15:39;;;;;;;16.13;7.55;;;15.10;99.90;;;;;;5070137;28;20024;-50
2023/07/23 00:18:05;;;;;;;14.25;6.75;;;15.10;99.90;;;;;;5071239;28;20123;-51
2023/07/23 00:20:31;;;;;;;15.75;6.80;;;15.10;99.90;;;;;;5071208;28;20056;-50
2023/07/23 00:22:56;;;;;;;15.82;7.63;;;15.10;99.90;;;;;;5070668;28;20090;-49
2023/07/23 00:25:22;;;;;;;14.55;8.60;;;15.10;99.90;;;;;;5071310;28;20070;-48
2023/07/23 00:27:48;;;;;;;13.07;8.18;;;15.20;99.90;;;;;;5071616;28;20489;-50
2023/07/23 00:30:13;;;;;;;13.00;8.98;;;15.00;99.90;;;;;;5071330;28;20025;-52
2023/07/23 00:32:39;;;;;;;13.35;5.90;;;15.10;99.90;;;;;;5080847;28;20043;-48
2023/07/23 00:35:05;;;;;;;15.07;9.18;;;15.10;99.90;;;;;;5091255;28;20043;-51
2023/07/23 00:37:31;;;;;;;13.85;8.65;;;15.20;99.90;;;;;;5091328;28;20054;-48
2023/07/23 00:39:57;;;;;;;13.18;6.53;;;15.20;99.90;;;;;;5090954;28;20046;-50
2023/07/23 00:42:23;;;;;;;14.98;6.22;;;15.20;99.90;;;;;;5090962;28;20036;-51
2023/07/23 00:44:49;;;;;;;15.20;6.18;;;15.10;99.90;;;;;;5089710;28;20119;-51
2023/07/23 00:47:16;;;;;;;11.15;8.27;;;15.10;99.90;;;;;;5090688;28;20058;-50
2023/07/23 00:49:42;;;;;;;13.85;7.82;;;15.00;99.90;;;;;;5076507;28;20123;-50
2023/07/23 00:52:08;;;;;;;13.60;5.85;;;15.10;99.90;;;;;;5088044;28;20122;-49
2023/07/23 00:54:34;;;;;;;12.90;9.38;;;15.00;99.90;;;;;;5091149;28;20109;-49
2023/07/23 00:57:02;;;;;;;14.07;6.20;;;15.10;99.90;;;;;;5091195;28;20141;-51
2023/07/23 00:59:30;;;;;;;14.75;9.80;;;14.90;99.90;;;;;;5089769;28;20039;-51
2023/07/23 01:01:57;;;;;;;14.00;9.65;;;14.90;99.90;;;;;;5090403;28;20035;-52
2023/07/23 01:04:22;;;;;;;17.80;10.25;;;14.90;99.90;;;;;;5082745;28;20036;-52
2023/07/23 01:06:49;;;;;;;14.05;6.38;;;15.00;99.90;;;;;;5071047;28;20039;-47
2023/07/23 01:09:18;;;;;;;18.85;10.65;;;15.00;99.90;;;;;;5069756;28;20102;-49
2023/07/23 01:11:44;;;;;;;13.88;6.65;;;15.00;99.90;;;;;;5070994;28;20047;-50
2023/07/23 01:14:09;;;;;;;15.60;6.80;;;14.80;99.90;;;;;;5089328;28;20564;-53
2023/07/23 01:16:36;;;;;;;15.40;7.18;;;14.80;99.90;;;;;;5083461;28;20040;-52
2023/07/23 01:19:03;;;;;;;17.10;7.35;;;15.00;99.90;;;;;;5088834;28;20483;-50
2023/07/23 01:21:29;;;;;;;17.25;10.93;;;14.80;99.90;;;;;;5090449;28;20036;-50
2023/07/23 01:23:55;;;;;;;20.10;12.00;;;14.90;99.90;;;;;;5090969;28;20047;-52
2023/07/23 01:26:21;;;;;;;16.73;10.88;;;15.00;99.90;;;;;;5091182;28;20024;-54
2023/07/23 01:28:47;;;;;;;14.30;7.03;;;15.00;99.90;;;;;;5089284;28;20040;-53
2023/07/23 01:31:13;;;;;;;16.67;11.02;;;14.80;99.90;;;;;;5089023;28;20036;-48
2023/07/23 01:33:41;;;;;;;15.82;11.20;;;14.90;99.90;;;;;;5093810;28;20398;-50
2023/07/23 01:36:08;;;;;;;21.60;11.70;;;14.80;99.90;;;;;;5094477;28;20028;-53
2023/07/23 01:38:33;;;;;;;14.75;11.10;;;15.10;99.90;;;;;;5094611;28;20048;-53
2023/07/23 01:41:01;;;;;;;15.65;10.85;;;14.80;99.90;;;;;;5094778;28;20032;-50
2023/07/23 01:43:27;;;;;;;15.80;10.98;;;14.90;99.90;;;;;;5094569;28;20111;-53
2023/07/23 01:45:53;;;;;;;14.20;10.85;;;14.80;99.90;;;;;;5094224;28;20383;-52
2023/07/23 01:48:21;;;;;;;15.65;10.75;;;14.90;99.90;;;;;;5093883;28;20044;-50
2023/07/23 01:50:46;;;;;;;18.02;11.50;;;15.10;99.90;;;;;;5094683;28;20360;-53
2023/07/23 01:53:12;;;;;;;14.65;10.82;;;14.90;99.90;;;;;;5094216;28;20039;-48
2023/07/23 01:55:38;;;;;;;14.80;7.47;;;15.10;99.90;;;;;;5092957;28;20426;-54
2023/07/23 01:58:03;;;;;;;16.67;9.93;;;14.90;99.90;;;;;;5094081;28;20031;-52
2023/07/23 02:00:29;;;;;;;15.73;10.20;;;15.10;99.90;;;;;;5092626;28;20052;-51
2023/07/23 02:02:55;;;;;;;15.57;10.05;;;14.90;99.90;;;;;;5092753;28;20069;-49
2023/07/23 02:05:23;;;;;;;15.23;10.20;;;15.00;99.90;;;;;;5091872;28;20052;-53
2023/07/23 02:07:49;;;;;;;13.80;9.48;;;14.90;99.90;;;;;;5083118;28;20032;-50
2023/07/23 02:10:18;;;;;;;15.82;10.93;;;15.10;99.90;;;;;;5073360;28;20029;-52
2023/07/23 02:12:43;;;;;;;16.63;10.35;;;15.10;99.90;;;;;;5072834;28;20126;-50
2023/07/23 02:15:09;;;;;;;13.43;10.20;;;14.90;99.90;;;;;;5073306;28;20115;-50
2023/07/23 02:17:35;;;;;;;13.52;10.55;;;15.10;99.90;;;;;;5073526;28;20046;-52
2023/07/23 02:20:01;;;;;;;13.93;10.65;;;15.10;99.90;;;;;;5073410;28;20036;-51
2023/07/23 02:22:27;;;;;;;13.32;11.18;;;15.00;99.90;;;;;;5073847;28;20040;-51
2023/07/23 02:24:52;;;;;;;13.82;10.75;;;15.10;99.90;;;;;;5073453;28;20044;-53
2023/07/23 02:27:18;;;;;;;17.85;12.15;;;15.00;99.90;;;;;;5073439;28;20047;-50
2023/07/23 02:29:44;;;;;;;14.88;11.25;;;14.90;99.90;;;;;;5073586;28;20028;-51
2023/07/23 02:32:10;;;;;;;16.27;11.18;;;15.10;99.90;;;;;;5072987;28;20036;-51
2023/07/23 02:34:36;;;;;;;18.50;12.13;;;15.10;99.90;;;;;;5073162;28;20083;-51
2023/07/23 02:37:02;;;;;;;18.63;8.68;;;15.10;99.90;;;;;;5073364;28;20068;-53
2023/07/23 02:39:27;;;;;;;14.98;8.20;;;14.90;99.90;;;;;;5073156;28;20036;-53
2023/07/23 02:41:53;;;;;;;17.48;11.85;;;15.00;99.90;;;;;;5073299;28;20037;-51
2023/07/23 02:44:19;;;;;;;17.33;9.18;;;15.00;99.90;;;;;;5072365;28;20603;-49
2023/07/23 02:46:44;;;;;;;18.80;13.82;;;15.00;99.90;;;;;;5072838;28;20441;-50
2023/07/23 02:49:10;;;;;;;19.25;8.70;;;15.10;99.90;;;;;;5073332;28;20029;-49
2023/07/23 02:51:36;;;;;;;15.13;11.93;;;14.90;99.90;;;;;;5072945;28;20052;-55
2023/07/23 02:54:01;;;;;;;16.30;11.77;;;14.90;99.90;;;;;;5090341;28;20044;-47
2023/07/23 02:56:27;;;;;;;15.82;11.50;;;14.90;99.90;;;;;;5093190;28;20028;-51
2023/07/23 02:58:53;;;;;;;15.10;11.40;;;15.10;99.90;;;;;;5093331;28;20048;-51
2023/07/23 03:01:20;;;;;;;18.30;12.88;;;15.00;99.90;;;;;;5092720;28;20032;-49
2023/07/23 03:03:47;;;;;;;16.65;12.13;;;15.10;99.90;;;;;;5074704;28;20048;-50
2023/07/23 03:06:16;;;;;;;17.85;12.50;;;15.10;99.90;;;;;;5090732;28;20043;-50
2023/07/23 03:08:42;;;;;;;17.45;11.93;;;15.10;99.90;;;;;;5072948;28;20700;-55
2023/07/23 03:11:08;;;;;;;16.85;11.90;;;14.90;99.90;;;;;;5090144;28;20032;-52
2023/07/23 03:13:33;;;;;;;15.77;11.90;;;15.00;99.90;;;;;;5091643;28;20028;-52
2023/07/23 03:15:59;;;;;;;16.63;8.32;;;14.90;99.90;;;;;;5092938;28;20047;-54
2023/07/23 03:18:25;;;;;;;19.60;11.73;;;14.90;99.90;;;;;;5092788;28;20035;-51
2023/07/23 03:20:51;;;;;;;16.40;12.25;;;14.90;99.90;;;;;;5092030;28;20036;-49
2023/07/23 03:23:16;;;;;;;16.20;11.95;;;15.10;99.90;;;;;;5072255;28;20170;-54
2023/07/23 03:25:42;;;;;;;18.05;12.18;;;14.90;99.90;;;;;;5072518;28;20090;-50
2023/07/23 03:28:08;;;;;;;17.35;9.48;;;14.90;99.90;;;;;;5072302;28;20028;-50
2023/07/23 03:30:33;;;;;;;16.42;12.88;;;14.90;99.90;;;;;;5072223;28;20036;-54
2023/07/23 03:33:00;;;;;;;17.92;12.48;;;15.10;99.90;;;;;;5071597;28;20029;-51
2023/07/23 03:35:25;;;;;;;15.50;12.15;;;15.10;99.90;;;;;;5072185;28;20081;-50
2023/07/23 03:37:51;;;;;;;15.60;9.52;;;15.00;99.90;;;;;;5072260;28;20383;-48
2023/07/23 03:40:17;;;;;;;15.82;8.68;;;15.10;99.90;;;;;;5072209;28;20404;-53
2023/07/23 03:42:42;;;;;;;18.40;10.77;;;14.90;99.90;;;;;;5069148;28;20373;-53
2023/07/23 03:45:08;;;;;;;19.20;13.30;;;15.10;99.90;;;;;;5071626;28;20055;-54
2023/07/23 03:47:34;;;;;;;19.98;10.00;;;14.90;99.90;;;;;;5090236;28;20109;-50
2023/07/23 03:50:00;;;;;;;17.60;9.55;;;15.10;99.90;;;;;;5092268;28;20099;-52
2023/07/23 03:52:25;;;;;;;16.40;13.18;;;15.00;99.90;;;;;;5092110;28;20564;-52
2023/07/23 03:54:51;;;;;;;19.90;9.65;;;14.90;99.90;;;;;;5091396;28;20077;-52
2023/07/23 03:57:17;;;;;;;18.05;10.18;;;14.90;99.90;;;;;;5092144;28;20032;-51
2023/07/23 03:59:45;;;;;;;18.92;10.02;;;14.90;99.90;;;;;;5091881;28;20502;-51
2023/07/23 04:02:11;;;;;;;22.00;12.98;;;15.00;99.90;;;;;;5091454;28;20210;-51
2023/07/23 04:04:37;;;;;;;15.70;12.52;;;14.80;99.90;;;;;;5091776;28;20119;-48
2023/07/23 04:07:04;;;;;;;17.33;13.05;;;14.90;99.90;;;;;;5080894;28;20033;-52
2023/07/23 04:09:30;;;;;;;17.73;13.98;;;15.00;99.90;;;;;;5071639;28;20117;-50
2023/07/23 04:11:56;;;;;;;20.55;10.88;;;14.90;99.90;;;;;;5071347;28;20479;-51
2023/07/23 04:14:22;;;;;;;22.67;14.77;;;15.10;99.90;;;;;;5071878;28;20154;-52
2023/07/23 04:16:48;;;;;;;20.45;14.75;;;14.90;99.90;;;;;;5071368;28;20044;-52
2023/07/23 04:19:14;;;;;;;21.33;11.70;;;15.00;99.90;;;;;;5071544;28;20453;-53
2023/07/23 04:21:40;;;;;;;22.40;15.93;;;14.90;99.90;;;;;;5071457;28;20036;-52
2023/07/23 04:24:06;;;;;;;21.35;15.95;;;15.00;99.90;;;;;;5071527;28;20145;-53
2023/07/23 04:26:31;;;;;;;23.10;15.98;;;14.90;99.90;;;;;;5071053;28;20033;-53
2023/07/23 04:28:58;;;;;;;20.17;15.57;;;14.80;99.90;;;;;;5071058;28;20063;-52
2023/07/23 04:31:24;;;;;;;25.10;15.60;;;14.90;99.90;;;;;;5070649;28;20513;-52
2023/07/23 04:33:50;;;;;;;22.52;12.07;;;14.90;99.90;;;;;;5071131;28;20116;-53
2023/07/23 04:36:16;;;;;;;23.65;16.50;;;14.80;99.90;;;;;;5089152;28;20047;-52
2023/07/23 04:38:43;;;;;;;22.75;16.42;;;15.00;99.90;;;;;;5091540;28;20028;-51
2023/07/23 04:41:10;;;;;;;20.98;11.90;;;14.90;99.90;;;;;;5091067;28;20075;-52
2023/07/23 04:43:36;;;;;;;24.65;16.40;;;15.00;99.90;;;;;;5089909;28;20104;-51
2023/07/23 04:46:05;;;;;;;20.13;15.60;;;14.80;99.90;;;;;;5090759;28;20058;-49
2023/07/23 04:48:35;;;;;;;23.10;16.17;;;15.00;99.90;;;;;;5091327;28;20044;-49
2023/07/23 04:51:04;;;;;;;19.48;15.20;;;14.90;99.90;;;;;;5091453;28;20180;-51
2023/07/23 04:53:30;;;;;;;18.98;15.02;;;14.90;99.90;;;;;;5091029;28;20041;-54
2023/07/23 04:56:01;;;;;;;17.73;14.60;;;15.00;99.90;;;;;;5091174;28;20043;-51
2023/07/23 04:58:27;;;;;;;16.83;13.48;;;15.00;99.90;;;;;;5091179;28;20111;-50
2023/07/23 05:00:53;;;;;;;20.55;15.77;;;14.90;99.90;;;;;;5090699;28;20078;-53
2023/07/23 05:03:19;;;;;;;19.83;14.15;;;14.90;99.90;;;;;;5069716;28;20089;-50
2023/07/23 05:05:51;;;;;;;20.90;16.05;;;15.10;99.90;;;;;;5070379;28;20037;-51
2023/07/23 05:08:20;;;;;;;20.77;15.75;;;15.10;99.90;;;;;;5070456;28;20035;-51
2023/07/23 05:10:47;;;;;;;20.20;16.42;;;15.20;99.90;;;;;;5070628;28;20036;-53
2023/07/23 05:13:14;;;;;;;22.02;11.60;;;15.10;99.90;;;;;;5070648;28;20044;-51
2023/07/23 05:15:40;;;;;;;22.30;17.05;;;15.10;99.90;;;;;;5070738;28;20111;-52
2023/07/23 05:18:05;;;;;;;21.77;12.43;;;15.10;99.90;;;;;;5089256;28;20097;-52
2023/07/23 05:20:31;;;;;;;24.33;11.73;;;15.00;99.90;;;;;;5090831;28;20086;-52
2023/07/23 05:22:57;;;;;;;21.17;12.10;;;15.00;99.90;;;;;;5090620;28;20429;-48
2023/07/23 05:25:22;;;;;;;21.13;15.70;;;15.30;99.90;;;;;;5090569;28;20422;-55
2023/07/23 05:27:49;;;;;;;20.38;13.35;;;15.10;99.90;;;;;;5089268;28;20115;-51
2023/07/23 05:30:16;;;;;;;19.45;12.10;;;15.30;99.90;;;;;;5090866;28;20101;-52
2023/07/23 05:32:42;;;;;;;21.63;12.13;;;15.30;99.90;;;;;;5090255;28;20040;-48
2023/07/23 05:35:08;;;;;;;18.08;15.25;;;15.20;99.90;;;;;;5090962;28;20072;-52
2023/07/23 05:37:34;;;;;;;21.13;15.23;;;15.40;99.90;;;;;;5090642;28;20074;-52
2023/07/23 05:39:59;;;;;;;21.65;10.85;;;15.40;99.90;;;;;;5090729;28;20068;-53
2023/07/23 05:42:25;;;;;;;17.80;12.88;;;15.40;99.90;;;;;;5090585;28;20122;-52
2023/07/23 05:44:50;;;;;;;19.27;10.50;;;15.30;99.90;;;;;;5090275;28;20097;-52
2023/07/23 05:47:16;;;;;;;18.63;11.02;;;15.40;99.90;;;;;;5090362;28;20051;-51
2023/07/23 05:49:42;;;;;;;15.85;10.48;;;15.60;99.90;;;;;;5090467;28;20360;-52
2023/07/23 05:52:08;;;;;;;16.25;12.52;;;15.50;99.90;;;;;;5090815;28;20475;-54
2023/07/23 05:54:33;;;;;;;19.98;11.20;;;15.50;99.90;;;;;;5072009;28;20040;-55
2023/07/23 05:56:59;;;;;;;18.80;11.25;;;15.60;99.90;;;;;;5071662;28;20124;-51
2023/07/23 05:59:26;;;;;;;18.10;13.27;;;15.60;99.90;;;;;;5069473;28;20064;-51
2023/07/23 06:01:52;;;;;;;19.38;13.00;;;15.60;99.90;;;;;;5069977;28;20040;-51
2023/07/23 06:04:18;;;;;;;19.38;13.73;;;15.80;99.90;;;;;;5070082;28;20044;-53
2023/07/23 06:06:43;;;;;;;15.35;12.70;;;15.70;99.90;;;;;;5070450;28;20029;-50
2023/07/23 06:09:10;;;;;;;16.58;12.55;;;15.70;99.90;;;;;;5070238;28;20093;-47
2023/07/23 06:11:36;;;;;;;15.90;11.45;;;15.70;99.90;;;;;;5088385;28;20040;-47
2023/07/23 06:14:02;;;;;;;15.40;8.82;;;15.80;99.90;;;;;;5090057;28;20036;-51
2023/07/23 06:16:29;;;;;;;15.75;11.40;;;15.90;99.90;;;;;;5090530;28;20036;-53
2023/07/23 06:18:55;;;;;;;16.60;8.63;;;15.70;99.90;;;;;;5078811;28;20224;-48
2023/07/23 06:21:20;;;;;;;16.05;8.60;;;15.90;99.90;;;;;;5068602;28;20040;-46
2023/07/23 06:23:46;;;;;;;15.15;10.50;;;15.90;99.90;;;;;;5070733;28;20037;-53
2023/07/23 06:26:13;;;;;;;15.95;7.88;;;15.80;99.90;;;;;;5066932;28;20025;-54
2023/07/23 06:28:38;;;;;;;17.40;7.97;;;15.90;99.90;;;;;;5068461;28;20033;-53
2023/07/23 06:31:04;;;;;;;15.13;8.60;;;16.00;99.90;;;;;;5068668;28;20033;-51
2023/07/23 06:33:30;;;;;;;15.75;10.57;;;15.90;99.90;;;;;;5072231;28;20028;-52
2023/07/23 06:35:55;;;;;;;17.95;10.25;;;16.10;99.90;;;;;;5073833;28;20568;-54
2023/07/23 06:38:21;;;;;;;16.90;8.52;;;16.10;99.90;;;;;;5071161;28;20037;-51
2023/07/23 06:40:52;;;;;;;16.02;10.85;;;16.20;99.90;;;;;;5072508;28;20032;-50
2023/07/23 06:43:19;;;;;;;16.77;11.00;;;16.20;99.90;;;;;;5072020;28;20036;-50
2023/07/23 06:45:49;;;;;;;19.50;9.18;;;16.00;99.90;;;;;;5072864;28;20072;-52
2023/07/23 06:48:17;;;;;;;15.15;10.63;;;16.00;99.90;;;;;;5070285;28;20033;-52
2023/07/23 06:50:45;;;;;;;20.55;8.85;;;16.20;99.90;;;;;;5072159;28;20079;-51
2023/07/23 06:53:11;;;;;;;18.15;10.82;;;16.10;99.90;;;;;;5073762;28;20036;-47
2023/07/23 06:56:00;;;;;;;16.48;8.85;;;16.20;99.90;;;;;;5072353;28;20422;-49
2023/07/23 06:58:27;;;;;;;17.92;10.73;;;16.00;99.90;;;;;;5070736;28;20041;-48
2023/07/23 07:00:54;;;;;;;16.02;8.60;;;16.20;99.90;;;;;;5068388;28;20044;-48
2023/07/23 07:03:19;;;;;;;17.92;10.68;;;16.00;99.90;;;;;;5071458;28;20094;-49
2023/07/23 07:05:45;;;;;;;16.58;11.18;;;16.10;99.90;;;;;;5069968;28;20475;-48
2023/07/23 07:08:12;;;;;;;13.73;10.15;;;16.20;99.90;;;;;;5070770;28;20047;-48
2023/07/23 07:10:37;;;;;;;14.65;10.27;;;16.30;99.90;;;;;;5066805;28;20040;-52
2023/07/23 07:13:03;;;;;;;22.85;9.43;;;16.30;99.90;;;;;;5069036;28;20040;-47
2023/07/23 07:15:29;;;;;;;17.80;9.02;;;16.20;99.90;;;;;;5070884;28;20036;-50
2023/07/23 07:17:55;;;;;;;14.77;7.82;;;16.20;99.90;;;;;;5070615;28;20047;-45
2023/07/23 07:20:20;;;;;;;17.65;10.70;;;16.10;99.90;;;;;;5069856;28;20502;-50
2023/07/23 07:22:46;;;;;;;21.27;9.45;;;16.10;99.90;;;;;;5071116;28;20052;-49
2023/07/23 07:25:12;;;;;;;18.95;10.82;;;16.20;99.90;;;;;;5070787;28;20036;-50
2023/07/23 07:27:38;;;;;;;15.75;11.05;;;16.20;99.90;;;;;;5070096;28;20391;-52
2023/07/23 07:30:04;;;;;;;16.60;11.60;;;16.10;99.90;;;;;;5069412;28;20043;-51
2023/07/23 07:32:30;;;;;;;18.58;11.77;;;16.00;99.90;;;;;;5069276;28;20041;-50
2023/07/23 07:34:55;;;;;;;19.80;8.30;;;15.90;99.90;;;;;;5070467;28;20114;-53
2023/07/23 07:37:22;;;;;;;18.52;12.25;;;16.10;99.90;;;;;;5069943;28;20056;-50
2023/07/23 07:39:48;;;;;;;17.35;11.55;;;16.00;99.90;;;;;;5074371;28;20039;-48
2023/07/23 07:42:13;;;;;;;17.02;10.95;;;15.90;99.90;;;;;;5068793;28;20036;-47
2023/07/23 07:44:39;;;;;;;18.20;10.70;;;16.10;99.90;;;;;;5069688;28;20029;-51
2023/07/23 07:47:05;;;;;;;17.02;8.30;;;15.90;99.90;;;;;;5068886;28;20056;-50
2023/07/23 07:49:31;;;;;;;15.75;8.00;;;16.00;99.90;;;;;;5070748;28;20048;-48
2023/07/23 07:51:57;;;;;;;17.10;10.95;;;16.00;99.90;;;;;;5070318;28;20471;-53
2023/07/23 07:54:23;;;;;;;12.80;9.55;;;16.10;99.90;;;;;;5070575;28;20047;-51
2023/07/23 07:56:49;;;;;;;15.02;10.20;;;16.10;99.90;;;;;;5070271;28;20040;-53
2023/07/23 07:59:15;;;;;;;16.17;7.38;;;16.10;99.90;;;;;;5069698;28;20075;-52
2023/07/23 08:01:41;;;;;;;17.63;8.25;;;16.20;99.90;;;;;;5069313;28;20032;-51
2023/07/23 08:04:10;;;;;;;17.73;10.68;;;16.10;99.90;;;;;;5069122;28;20036;-48
2023/07/23 08:06:40;;;;;;;18.00;10.80;;;16.30;99.90;;;;;;5069517;28;20040;-52
2023/07/23 08:09:09;;;;;;;18.20;10.90;;;16.20;99.90;;;;;;5069970;28;20389;-50
2023/07/23 08:11:36;;;;;;;18.00;10.82;;;16.30;99.90;;;;;;5069307;28;20035;-49
2023/07/23 08:14:06;;;;;;;13.85;9.38;;;16.20;99.90;;;;;;5069081;28;20041;-52
2023/07/23 08:16:32;;;;;;;12.82;9.63;;;16.30;99.90;;;;;;5069497;28;20041;-54
2023/07/23 08:18:57;;;;;;;13.02;9.07;;;16.30;99.90;;;;;;5069182;28;20034;-52
2023/07/23 08:21:23;;;;;;;13.95;10.00;;;16.30;99.90;;;;;;5070088;28;20025;-51
2023/07/23 08:23:50;;;;;;;13.85;9.50;;;16.10;99.90;;;;;;5068591;28;20032;-48
2023/07/23 08:26:19;;;;;;;12.75;8.82;;;16.30;99.90;;;;;;5069602;28;20046;-49
2023/07/23 08:28:51;;;;;;;12.30;8.70;;;16.30;99.90;;;;;;5067276;28;20442;-51
2023/07/23 08:31:18;;;;;;;13.50;8.68;;;16.20;99.90;;;;;;5068807;28;20094;-51
2023/07/23 08:33:46;;;;;;;12.55;8.43;;;16.40;99.90;;;;;;5068492;28;20028;-52
2023/07/23 08:36:12;;;;;;;11.05;8.20;;;16.30;99.90;;;;;;5068908;28;20040;-47
2023/07/23 08:38:38;;;;;;;11.82;8.07;;;16.30;99.90;;;;;;5068848;28;20044;-48
2023/07/23 08:41:30;;;;;;;11.60;6.15;;;16.40;99.90;;;;;;5068841;28;20036;-52
2023/07/23 08:44:09;;;;;;;10.45;7.40;;;16.50;99.90;;;;;;5034186;28;20062;-47
2023/07/23 08:46:46;;;;;;;12.38;7.72;;;16.60;99.90;;;;;;5068576;28;20518;-49
2023/07/23 08:49:15;;;;;;;12.18;7.45;;;16.50;99.90;;;;;;5069405;28;20072;-51
2023/07/23 08:51:46;;;;;;;10.18;5.88;;;16.40;99.90;;;;;;5068805;28;20459;-47
2023/07/23 08:54:14;;;;;;;11.48;8.00;;;16.40;99.90;;;;;;5069025;28;20040;-47
2023/07/23 08:56:42;;;;;;;10.95;6.15;;;16.40;99.90;;;;;;5069485;28;20040;-49
2023/07/23 08:59:09;;;;;;;14.10;6.63;;;16.50;99.90;;;;;;5068381;28;20056;-48
2023/07/23 09:01:37;;;;;;;16.05;6.47;;;16.40;99.90;;;;;;5069374;28;20036;-49
2023/07/23 09:04:05;;;;;;;10.65;5.85;;;16.60;99.90;;;;;;5068637;28;20036;-49
2023/07/23 09:06:31;;;;;;;11.70;7.25;;;16.60;99.90;;;;;;5068443;28;20094;-52
2023/07/23 09:09:05;;;;;;;11.00;7.60;;;16.40;99.90;;;;;;5068791;28;20391;-50
2023/07/23 09:11:31;;;;;;;11.15;6.88;;;16.40;99.90;;;;;;5068406;28;20036;-49
2023/07/23 09:13:58;;;;;;;9.65;6.68;;;16.60;99.90;;;;;;5068723;28;20063;-47
2023/07/23 09:16:24;;;;;;;9.20;6.82;;;16.50;99.90;;;;;;5068549;28;20082;-48
2023/07/23 09:18:50;;;;;;;10.30;6.72;;;16.50;99.90;;;;;;5065887;28;20036;-48
2023/07/23 09:21:26;;;;;;;11.20;7.25;;;16.60;99.90;;;;;;5066246;28;20047;-47
2023/07/23 09:23:57;;;;;;;14.85;5.57;;;16.60;99.90;;;;;;5067418;28;20082;-47
2023/07/23 09:26:27;;;;;;;11.23;6.93;;;16.60;99.90;;;;;;5068846;28;20044;-50
2023/07/23 09:28:56;;;;;;;8.80;6.53;;;17.10;99.90;;;;;;5066750;28;20044;-49
2023/07/23 09:31:27;;;;;;;12.15;5.57;;;16.80;99.90;;;;;;5068194;28;20053;-50
2023/07/23 09:33:54;;;;;;;8.75;6.00;;;16.70;99.90;;;;;;5068214;28;20045;-47
2023/07/23 09:36:25;;;;;;;8.32;6.68;;;16.70;99.90;;;;;;5068778;28;20048;-47
2023/07/23 09:38:58;;;;;;;10.30;6.65;;;16.70;99.90;;;;;;5070886;28;20422;-52
2023/07/23 09:41:30;;;;;;;10.52;5.55;;;16.70;99.90;;;;;;5070152;28;20392;-52
2023/07/23 09:44:07;;;;;;;9.85;6.80;;;16.80;99.90;;;;;;5069240;28;20032;-51
2023/07/23 09:46:33;;;;;;;9.20;6.90;;;16.80;99.90;;;;;;5069680;28;20040;-52
2023/07/23 09:48:59;;;;;;;10.35;6.90;;;16.80;99.90;;;;;;5070019;28;20078;-48
2023/07/23 09:51:26;;;;;;;9.48;6.40;;;16.80;99.90;;;;;;5070388;28;20434;-52
2023/07/23 09:53:51;;;;;;;9.05;6.05;;;16.90;99.90;;;;;;5071020;28;20036;-50
2023/07/23 09:56:19;;;;;;;8.50;6.05;;;16.90;99.90;;;;;;5072682;28;20032;-50
2023/07/23 09:58:47;;;;;;;8.68;6.45;;;16.90;99.90;;;;;;5073765;28;20730;-46
2023/07/23 10:01:17;;;;;;;9.18;6.80;;;16.80;99.90;;;;;;5074798;28;20037;-49
2023/07/23 10:03:44;;;;;;;8.45;6.78;;;16.90;99.90;;;;;;5073320;28;20040;-48
2023/07/23 10:06:12;;;;;;;8.93;5.38;;;16.80;99.90;;;;;;5073494;28;20384;-49
2023/07/23 10:08:44;;;;;;;9.50;6.43;;;16.70;99.90;;;;;;5073473;28;20104;-48
2023/07/23 10:11:12;;;;;;;10.98;7.40;;;16.70;99.90;;;;;;5073319;28;20123;-49
2023/07/23 10:13:39;;;;;;;10.10;7.22;;;16.70;99.90;;;;;;5072671;28;20174;-50
2023/07/23 10:16:26;;;;;;;9.45;7.47;;;16.80;99.90;;;;;;5072665;28;20488;-50
2023/07/23 10:18:53;;;;;;;10.18;7.30;;;16.90;99.90;;;;;;5073835;28;20051;-48
2023/07/23 10:21:19;;;;;;;9.45;6.90;;;16.90;99.90;;;;;;5073425;28;20035;-50
2023/07/23 10:23:55;;;;;;;11.73;7.80;;;16.80;99.90;;;;;;5072079;28;20281;-50
2023/07/23 10:26:24;;;;;;;9.73;7.20;;;17.00;99.90;;;;;;5075455;28;20059;-49
2023/07/23 10:29:11;;;;;;;9.00;5.30;;;16.90;99.90;;;;;;5071524;28;20487;-50
2023/07/23 10:31:40;;;;;;;10.50;5.82;;;17.00;99.90;;;;;;5071264;28;20056;-47
2023/07/23 10:34:27;;;;;;;9.57;7.43;;;17.00;99.90;;;;;;5070919;28;20044;-47
2023/07/23 10:37:18;;;;;;;8.77;6.97;;;17.00;99.90;;;;;;5068876;28;20032;-47
2023/07/23 10:39:47;;;;;;;9.68;6.68;;;16.90;99.90;;;;;;5078608;28;20111;-49
2023/07/23 10:42:28;;;;;;;10.25;6.20;;;17.10;99.90;;;;;;5073156;28;20040;-50
2023/07/23 10:45:22;;;;;;;10.35;6.18;;;16.90;99.90;;;;;;5074533;28;20063;-49
2023/07/23 10:47:53;;;;;;;10.15;7.32;;;16.90;99.90;;;;;;5072071;28;20157;-47
2023/07/23 10:50:20;;;;;;;10.60;7.22;;;17.00;99.90;;;;;;5074134;28;20128;-47
2023/07/23 10:52:47;;;;;;;10.25;8.00;;;17.00;99.90;;;;;;5071161;28;20109;-47
2023/07/23 10:55:41;;;;;;;10.65;7.80;;;17.20;99.90;;;;;;5075079;28;20038;-46
2023/07/23 10:58:11;;;;;;;10.75;7.78;;;17.00;99.90;;;;;;5072786;28;20076;-47
2023/07/23 11:00:47;;;;;;;11.38;7.88;;;17.20;99.90;;;;;;5072636;28;20109;-47
2023/07/23 11:03:16;;;;;;;10.15;7.35;;;17.20;99.90;;;;;;5070948;28;20051;-45
2023/07/23 11:05:43;;;;;;;10.68;7.07;;;17.10;99.90;;;;;;5073154;28;20075;-48
2023/07/23 11:08:16;;;;;;;11.13;7.38;;;17.10;99.90;;;;;;5082725;28;20094;-46
2023/07/23 11:10:55;;;;;;;9.85;6.93;;;17.10;99.90;;;;;;5068879;28;20032;-48
2023/07/23 11:13:23;;;;;;;9.35;6.80;;;17.20;99.90;;;;;;5071846;28;20040;-48
2023/07/23 11:15:49;;;;;;;11.25;7.15;;;17.30;99.90;;;;;;5070793;28;20047;-47
2023/07/23 11:18:15;;;;;;;10.52;7.00;;;17.20;99.90;;;;;;5073773;28;20450;-49
2023/07/23 11:20:51;;;;;;;10.25;7.15;;;17.20;99.90;;;;;;5070844;28;20036;-49
2023/07/23 11:23:20;;;;;;;10.93;5.65;;;17.30;99.90;;;;;;5070013;28;20032;-48
2023/07/23 11:25:47;;;;;;;8.35;6.10;;;17.40;99.90;;;;;;5054116;28;20057;-47
2023/07/23 11:28:15;;;;;;;9.80;5.60;;;17.40;99.90;;;;;;5069686;28;20075;-46
2023/07/23 11:30:41;;;;;;;8.48;6.03;;;17.40;99.90;;;;;;5070056;28;20123;-48
2023/07/23 11:33:08;;;;;;;7.75;5.90;;;17.40;99.90;;;;;;5069572;28;20111;-48
2023/07/23 11:35:34;;;;;;;8.27;6.15;;;17.50;99.90;;;;;;5070620;28;20551;-49
2023/07/23 11:38:06;;;;;;;8.52;5.90;;;17.60;99.90;;;;;;5069953;28;20127;-46
2023/07/23 11:40:33;;;;;;;7.60;4.65;;;17.50;99.90;;;;;;5069932;28;20097;-47
2023/07/23 11:43:09;;;;;;;8.10;5.07;;;17.50;99.90;;;;;;5068914;28;20063;-46
2023/07/23 11:45:45;;;;;;;7.82;4.90;;;17.60;99.90;;;;;;5070971;28;20452;-44
2023/07/23 11:48:18;;;;;;;7.88;4.38;;;17.50;99.90;;;;;;5071855;28;20140;-45
2023/07/23 11:50:48;;;;;;;7.35;4.70;;;17.50;99.90;;;;;;5069549;28;20071;-48
2023/07/23 11:53:29;;;;;;;6.68;4.47;;;17.60;99.90;;;;;;5069180;28;20047;-46
2023/07/23 11:56:06;;;;;;;8.15;4.10;;;17.60;99.90;;;;;;5068947;28;20117;-49
2023/07/23 11:58:34;;;;;;;6.53;5.05;;;17.70;99.90;;;;;;5069878;28;20051;-45
2023/07/23 12:01:00;;;;;;;6.93;4.78;;;17.60;99.90;;;;;;5069757;28;20036;-47
2023/07/23 12:03:26;;;;;;;6.75;5.00;;;17.80;99.90;;;;;;5069744;28;20115;-48
2023/07/23 12:05:53;;;;;;;6.45;5.22;;;17.90;99.90;;;;;;5069936;28;20115;-47
2023/07/23 12:08:19;;;;;;;6.88;5.40;;;17.80;99.90;;;;;;5069177;28;20032;-49
2023/07/23 12:10:44;;;;;;;10.02;4.88;;;18.00;99.90;;;;;;5069787;28;20387;-50
2023/07/23 12:13:11;;;;;;;9.00;5.70;;;18.00;99.90;;;;;;5069963;28;20035;-47
2023/07/23 12:15:37;;;;;;;7.85;6.00;;;18.30;99.90;;;;;;5069700;28;20068;-47
2023/07/23 12:18:03;;;;;;;8.55;6.30;;;18.40;99.90;;;;;;5069242;28;20051;-48
2023/07/23 12:20:29;;;;;;;8.40;6.25;;;18.60;99.90;;;;;;5069478;28;20395;-49
2023/07/23 12:22:56;;;;;;;7.53;6.10;;;18.70;99.90;;;;;;5069542;28;20037;-50
2023/07/23 12:25:24;;;;;;;8.45;6.38;;;18.80;99.90;;;;;;5069219;28;20076;-50
2023/07/23 12:27:50;;;;;;;7.70;6.05;;;18.90;99.90;;;;;;5068967;28;20068;-48
2023/07/23 12:30:17;;;;;;;10.50;6.70;;;18.90;99.90;;;;;;5050278;28;20083;-50
2023/07/23 12:32:44;;;;;;;7.50;6.45;;;19.30;99.90;;;;;;5068311;28;20032;-48
2023/07/23 12:35:10;;;;;;;7.00;6.13;;;19.80;99.90;;;;;;5069537;28;20440;-48